Disclaimer

Please do not use the information listed here in-flight or in-navigation, as they are not provided to us by the airports but are provided by volunteers, so they might be outdated.

Search


Regions


Airport information page

No radio frequency information is available.

Airport informations:
Latitude: 29° 46' 55.84" S
Longitude: 057° 02' 17.48" W
Elevation: 256 feet - 78 meters
Operating hours: Remarks
Operating agency: Civil government, landing fees and diplomatic clearance may be required
Timezone: UTC-3(-2DT)
Fuel: 100/130 octane gasoline, leaded, MIL-L-5572F (GREEN)

Runway information:
04/22 - 2725 x 202 feet< - >831 x 62 meters
09/27 - 4921 x 98 feet< - >1500 x 30 meters

Recent METARs:
SBUG 202000Z 06003KT 020V130 CAVOK 29/12 Q1013
SBUG 202100Z 06005KT CAVOK 29/12 Q1013
SBUG 202100Z 06005KT CAVOK 29/12 Q1013

Airport on the map: